sensor_id;sensor_type;location;lat;lon;timestamp;pressure;altitude;pressure_sealevel;temperature;humidity
28510;BME280;15723;55.684;37.928;2023-04-21T00:01:39;100202.97;;;9.38;33.33
28510;BME280;15723;55.684;37.928;2023-04-21T00:04:05;100200.09;;;9.42;33.24
28510;BME280;15723;55.684;37.928;2023-04-21T00:06:31;100197.91;;;9.32;33.63
28510;BME280;15723;55.684;37.928;2023-04-21T00:08:58;100196.63;;;9.22;33.67
28510;BME280;15723;55.684;37.928;2023-04-21T00:11:24;100190.41;;;9.20;33.74
28510;BME280;15723;55.684;37.928;2023-04-21T00:13:50;100193.56;;;9.28;33.78
28510;BME280;15723;55.684;37.928;2023-04-21T00:16:16;100192.97;;;9.23;33.66
28510;BME280;15723;55.684;37.928;2023-04-21T00:18:43;100190.41;;;9.20;33.75
28510;BME280;15723;55.684;37.928;2023-04-21T00:21:09;100194.75;;;9.07;33.92
28510;BME280;15723;55.684;37.928;2023-04-21T00:23:35;100190.22;;;9.07;34.00
28510;BME280;15723;55.684;37.928;2023-04-21T00:26:02;100194.00;;;9.21;33.72
28510;BME280;15723;55.684;37.928;2023-04-21T00:28:28;100194.53;;;9.27;33.48
28510;BME280;15723;55.684;37.928;2023-04-21T00:30:56;100190.94;;;9.11;33.86
28510;BME280;15723;55.684;37.928;2023-04-21T00:33:23;100189.19;;;9.10;33.60
28510;BME280;15723;55.684;37.928;2023-04-21T00:35:49;100186.56;;;9.08;33.25
28510;BME280;15723;55.684;37.928;2023-04-21T00:38:15;100178.72;;;9.20;33.26
28510;BME280;15723;55.684;37.928;2023-04-21T00:40:42;100177.38;;;9.11;33.44
28510;BME280;15723;55.684;37.928;2023-04-21T00:43:10;100173.56;;;9.15;33.16
28510;BME280;15723;55.684;37.928;2023-04-21T00:45:37;100171.25;;;9.07;33.22
28510;BME280;15723;55.684;37.928;2023-04-21T00:48:03;100172.13;;;9.08;32.99
28510;BME280;15723;55.684;37.928;2023-04-21T00:50:31;100177.91;;;9.18;33.06
28510;BME280;15723;55.684;37.928;2023-04-21T00:52:58;100173.19;;;9.05;33.19
28510;BME280;15723;55.684;37.928;2023-04-21T00:55:25;100168.81;;;9.03;33.36
28510;BME280;15723;55.684;37.928;2023-04-21T00:57:52;100169.53;;;8.89;33.53
28510;BME280;15723;55.684;37.928;2023-04-21T01:00:20;100170.09;;;8.78;33.77
28510;BME280;15723;55.684;37.928;2023-04-21T01:02:46;100172.47;;;8.85;33.53
28510;BME280;15723;55.684;37.928;2023-04-21T01:05:14;100164.34;;;8.85;33.76
28510;BME280;15723;55.684;37.928;2023-04-21T01:07:41;100160.31;;;8.93;33.64
28510;BME280;15723;55.684;37.928;2023-04-21T01:10:08;100163.56;;;8.83;33.63
28510;BME280;15723;55.684;37.928;2023-04-21T01:12:45;100160.16;;;8.79;33.74
28510;BME280;15723;55.684;37.928;2023-04-21T01:15:13;100153.69;;;8.82;33.82
28510;BME280;15723;55.684;37.928;2023-04-21T01:17:40;100160.94;;;8.81;33.66
28510;BME280;15723;55.684;37.928;2023-04-21T01:20:08;100166.53;;;8.78;33.62
28510;BME280;15723;55.684;37.928;2023-04-21T01:22:39;100159.53;;;8.74;33.80
28510;BME280;15723;55.684;37.928;2023-04-21T01:25:17;100160.06;;;8.98;33.44
28510;BME280;15723;55.684;37.928;2023-04-21T01:27:46;100154.31;;;8.87;33.52
28510;BME280;15723;55.684;37.928;2023-04-21T01:30:12;100145.41;;;8.85;33.45
28510;BME280;15723;55.684;37.928;2023-04-21T01:32:38;100153.84;;;8.96;33.41
28510;BME280;15723;55.684;37.928;2023-04-21T01:35:07;100158.81;;;8.70;33.89
28510;BME280;15723;55.684;37.928;2023-04-21T01:37:33;100140.66;;;8.72;33.87
28510;BME280;15723;55.684;37.928;2023-04-21T01:40:03;100149.81;;;8.70;33.87
28510;BME280;15723;55.684;37.928;2023-04-21T01:42:34;100146.00;;;8.74;33.66
28510;BME280;15723;55.684;37.928;2023-04-21T01:45:01;100148.16;;;8.67;33.90
28510;BME280;15723;55.684;37.928;2023-04-21T01:47:30;100141.78;;;8.68;33.88
28510;BME280;15723;55.684;37.928;2023-04-21T01:49:56;100142.91;;;8.47;34.40
28510;BME280;15723;55.684;37.928;2023-04-21T01:52:23;100143.69;;;8.66;33.94
28510;BME280;15723;55.684;37.928;2023-04-21T01:54:52;100153.72;;;8.47;34.06
28510;BME280;15723;55.684;37.928;2023-04-21T01:57:19;100146.41;;;8.49;33.85
28510;BME280;15723;55.684;37.928;2023-04-21T01:59:46;100141.25;;;8.62;33.87
28510;BME280;15723;55.684;37.928;2023-04-21T02:02:13;100152.78;;;8.65;33.96
28510;BME280;15723;55.684;37.928;2023-04-21T02:04:39;100156.50;;;8.80;33.48
28510;BME280;15723;55.684;37.928;2023-04-21T02:07:05;100151.25;;;8.77;33.57
28510;BME280;15723;55.684;37.928;2023-04-21T02:09:32;100149.28;;;8.63;33.92
28510;BME280;15723;55.684;37.928;2023-04-21T02:11:58;100158.50;;;8.59;34.07
28510;BME280;15723;55.684;37.928;2023-04-21T02:14:25;100154.13;;;8.39;34.52
28510;BME280;15723;55.684;37.928;2023-04-21T02:16:51;100152.53;;;8.35;34.96
28510;BME280;15723;55.684;37.928;2023-04-21T02:19:18;100149.03;;;8.68;34.48
28510;BME280;15723;55.684;37.928;2023-04-21T02:21:44;100148.47;;;8.44;34.97
28510;BME280;15723;55.684;37.928;2023-04-21T02:24:10;100151.81;;;8.66;34.78
28510;BME280;15723;55.684;37.928;2023-04-21T02:26:37;100149.75;;;8.71;34.54
28510;BME280;15723;55.684;37.928;2023-04-21T02:29:04;100153.88;;;8.78;34.11
28510;BME280;15723;55.684;37.928;2023-04-21T02:31:31;100157.81;;;8.89;34.02
28510;BME280;15723;55.684;37.928;2023-04-21T02:33:58;100147.47;;;8.97;33.90
28510;BME280;15723;55.684;37.928;2023-04-21T02:36:24;100149.22;;;8.98;33.79
28510;BME280;15723;55.684;37.928;2023-04-21T02:38:51;100144.06;;;8.76;33.98
28510;BME280;15723;55.684;37.928;2023-04-21T02:41:17;100155.22;;;8.70;34.09
28510;BME280;15723;55.684;37.928;2023-04-21T02:43:43;100149.56;;;8.74;33.98
28510;BME280;15723;55.684;37.928;2023-04-21T02:46:10;100157.13;;;9.18;33.36
28510;BME280;15723;55.684;37.928;2023-04-21T02:48:36;100152.03;;;10.08;31.98
28510;BME280;15723;55.684;37.928;2023-04-21T02:51:02;100145.75;;;10.53;30.85
28510;BME280;15723;55.684;37.928;2023-04-21T02:53:30;100138.84;;;11.35;29.98
28510;BME280;15723;55.684;37.928;2023-04-21T02:55:56;100142.72;;;11.59;29.21
28510;BME280;15723;55.684;37.928;2023-04-21T02:58:23;100137.56;;;12.10;28.53
28510;BME280;15723;55.684;37.928;2023-04-21T03:00:49;100138.94;;;12.30;28.32
28510;BME280;15723;55.684;37.928;2023-04-21T03:03:16;100134.72;;;12.38;27.87
28510;BME280;15723;55.684;37.928;2023-04-21T03:05:42;100134.19;;;12.19;28.23
28510;BME280;15723;55.684;37.928;2023-04-21T03:08:08;100135.53;;;12.26;28.12
28510;BME280;15723;55.684;37.928;2023-04-21T03:10:39;100134.91;;;13.00;27.32
28510;BME280;15723;55.684;37.928;2023-04-21T03:13:05;100136.03;;;13.49;26.68
28510;BME280;15723;55.684;37.928;2023-04-21T03:15:31;100143.75;;;13.17;26.83
28510;BME280;15723;55.684;37.928;2023-04-21T03:18:00;100148.66;;;13.37;26.45
28510;BME280;15723;55.684;37.928;2023-04-21T03:20:27;100153.41;;;13.84;26.14
28510;BME280;15723;55.684;37.928;2023-04-21T03:22:53;100157.63;;;14.49;25.55
28510;BME280;15723;55.684;37.928;2023-04-21T03:25:19;100154.38;;;14.67;25.02
28510;BME280;15723;55.684;37.928;2023-04-21T03:27:46;100143.28;;;15.04;24.39
28510;BME280;15723;55.684;37.928;2023-04-21T03:30:12;100152.28;;;15.84;23.96
28510;BME280;15723;55.684;37.928;2023-04-21T03:32:39;100153.22;;;16.17;23.74
28510;BME280;15723;55.684;37.928;2023-04-21T03:35:05;100138.47;;;15.86;23.54
28510;BME280;15723;55.684;37.928;2023-04-21T03:37:31;100151.13;;;16.09;23.29
28510;BME280;15723;55.684;37.928;2023-04-21T03:39:59;100152.38;;;16.48;22.70
28510;BME280;15723;55.684;37.928;2023-04-21T03:42:26;100141.09;;;16.42;22.58
28510;BME280;15723;55.684;37.928;2023-04-21T03:44:55;100142.59;;;17.50;21.98
28510;BME280;15723;55.684;37.928;2023-04-21T03:47:21;100139.03;;;16.23;22.78
28510;BME280;15723;55.684;37.928;2023-04-21T03:49:48;100139.84;;;17.80;21.79
28510;BME280;15723;55.684;37.928;2023-04-21T03:52:14;100132.94;;;17.56;21.57
28510;BME280;15723;55.684;37.928;2023-04-21T03:54:40;100146.88;;;18.13;20.92
28510;BME280;15723;55.684;37.928;2023-04-21T03:57:06;100137.25;;;17.48;21.88
28510;BME280;15723;55.684;37.928;2023-04-21T03:59:33;100134.72;;;18.06;21.24
28510;BME280;15723;55.684;37.928;2023-04-21T04:01:59;100132.38;;;18.71;20.23
28510;BME280;15723;55.684;37.928;2023-04-21T04:04:25;100128.41;;;18.25;20.65
28510;BME280;15723;55.684;37.928;2023-04-21T04:06:52;100130.03;;;19.05;20.28
28510;BME280;15723;55.684;37.928;2023-04-21T04:09:18;100125.97;;;18.51;20.23
28510;BME280;15723;55.684;37.928;2023-04-21T04:11:44;100125.66;;;19.12;20.18
28510;BME280;15723;55.684;37.928;2023-04-21T04:14:10;100129.41;;;19.21;19.98
28510;BME280;15723;55.684;37.928;2023-04-21T04:16:37;100122.41;;;19.83;19.15
28510;BME280;15723;55.684;37.928;2023-04-21T04:19:03;100134.31;;;19.36;19.66
28510;BME280;15723;55.684;37.928;2023-04-21T04:21:29;100122.97;;;18.73;20.18
28510;BME280;15723;55.684;37.928;2023-04-21T04:23:57;100121.19;;;18.92;20.52
28510;BME280;15723;55.684;37.928;2023-04-21T04:26:24;100122.22;;;19.57;19.89
28510;BME280;15723;55.684;37.928;2023-04-21T04:28:51;100118.84;;;20.63;18.74
28510;BME280;15723;55.684;37.928;2023-04-21T04:31:18;100123.81;;;19.59;19.45
28510;BME280;15723;55.684;37.928;2023-04-21T04:33:44;100118.00;;;20.35;18.96
28510;BME280;15723;55.684;37.928;2023-04-21T04:36:10;100120.94;;;21.91;17.79
28510;BME280;15723;55.684;37.928;2023-04-21T04:38:37;100119.25;;;19.78;19.21
28510;BME280;15723;55.684;37.928;2023-04-21T04:41:04;100126.91;;;20.29;19.37
28510;BME280;15723;55.684;37.928;2023-04-21T04:43:31;100124.75;;;20.86;19.55
28510;BME280;15723;55.684;37.928;2023-04-21T04:45:58;100116.63;;;21.10;19.58
28510;BME280;15723;55.684;37.928;2023-04-21T04:48:26;100116.91;;;22.94;17.49
28510;BME280;15723;55.684;37.928;2023-04-21T04:50:52;100112.16;;;22.54;17.67
28510;BME280;15723;55.684;37.928;2023-04-21T04:53:22;100120.09;;;21.12;18.34
28510;BME280;15723;55.684;37.928;2023-04-21T04:55:49;100112.94;;;23.13;17.20
28510;BME280;15723;55.684;37.928;2023-04-21T04:58:15;100118.81;;;22.10;17.72
28510;BME280;15723;55.684;37.928;2023-04-21T05:00:41;100109.38;;;22.37;17.84
28510;BME280;15723;55.684;37.928;2023-04-21T05:03:07;100110.06;;;24.71;16.15
28510;BME280;15723;55.684;37.928;2023-04-21T05:05:34;100111.75;;;21.48;18.41
28510;BME280;15723;55.684;37.928;2023-04-21T05:08:00;100102.03;;;22.87;17.26
28510;BME280;15723;55.684;37.928;2023-04-21T05:10:26;100101.47;;;24.35;16.31
28510;BME280;15723;55.684;37.928;2023-04-21T05:12:52;100108.00;;;23.63;16.52
28510;BME280;15723;55.684;37.928;2023-04-21T05:15:19;100099.19;;;25.59;15.24
28510;BME280;15723;55.684;37.928;2023-04-21T05:17:45;100093.53;;;24.77;15.93
28510;BME280;15723;55.684;37.928;2023-04-21T05:20:11;100084.47;;;26.24;14.73
28510;BME280;15723;55.684;37.928;2023-04-21T05:22:38;100083.63;;;26.24;14.48
28510;BME280;15723;55.684;37.928;2023-04-21T05:25:06;100099.19;;;23.52;16.65
28510;BME280;15723;55.684;37.928;2023-04-21T05:27:32;100096.69;;;25.35;15.62
28510;BME280;15723;55.684;37.928;2023-04-21T05:29:59;100088.38;;;23.81;16.49
28510;BME280;15723;55.684;37.928;2023-04-21T05:32:25;100089.97;;;25.44;15.35
28510;BME280;15723;55.684;37.928;2023-04-21T05:34:52;100086.16;;;25.60;15.05
28510;BME280;15723;55.684;37.928;2023-04-21T05:37:18;100086.09;;;25.15;15.08
28510;BME280;15723;55.684;37.928;2023-04-21T05:39:44;100081.41;;;25.16;15.48
28510;BME280;15723;55.684;37.928;2023-04-21T05:42:10;100085.50;;;25.05;15.61
28510;BME280;15723;55.684;37.928;2023-04-21T05:44:37;100080.44;;;24.40;15.75
28510;BME280;15723;55.684;37.928;2023-04-21T05:47:04;100074.72;;;25.25;15.28
28510;BME280;15723;55.684;37.928;2023-04-21T05:49:31;100081.13;;;25.25;15.13
28510;BME280;15723;55.684;37.928;2023-04-21T05:51:57;100073.53;;;25.72;14.68
28510;BME280;15723;55.684;37.928;2023-04-21T05:54:23;100076.06;;;26.17;14.44
28510;BME280;15723;55.684;37.928;2023-04-21T05:56:50;100076.56;;;25.47;14.84
28510;BME280;15723;55.684;37.928;2023-04-21T05:59:16;100070.88;;;24.88;14.93
28510;BME280;15723;55.684;37.928;2023-04-21T06:01:42;100066.88;;;24.45;15.76
28510;BME280;15723;55.684;37.928;2023-04-21T06:04:08;100063.09;;;26.25;14.32
28510;BME280;15723;55.684;37.928;2023-04-21T06:06:35;100059.25;;;26.40;13.83
28510;BME280;15723;55.684;37.928;2023-04-21T06:09:03;100071.53;;;25.13;14.46
28510;BME280;15723;55.684;37.928;2023-04-21T06:11:30;100064.00;;;26.10;14.24
28510;BME280;15723;55.684;37.928;2023-04-21T06:13:56;100058.91;;;26.14;13.99
28510;BME280;15723;55.684;37.928;2023-04-21T06:16:24;100052.72;;;27.19;13.14
28510;BME280;15723;55.684;37.928;2023-04-21T06:18:51;100064.19;;;25.20;14.47
28510;BME280;15723;55.684;37.928;2023-04-21T06:21:21;100054.66;;;27.18;13.61
28510;BME280;15723;55.684;37.928;2023-04-21T06:23:49;100049.41;;;26.87;13.71
28510;BME280;15723;55.684;37.928;2023-04-21T06:26:15;100056.50;;;29.55;12.04
28510;BME280;15723;55.684;37.928;2023-04-21T06:28:41;100055.78;;;30.37;11.22
28510;BME280;15723;55.684;37.928;2023-04-21T06:31:08;100050.00;;;27.94;12.82
28510;BME280;15723;55.684;37.928;2023-04-21T06:33:40;100055.69;;;26.96;13.58
28510;BME280;15723;55.684;37.928;2023-04-21T06:36:07;100053.84;;;27.59;13.28
28510;BME280;15723;55.684;37.928;2023-04-21T06:38:33;100051.50;;;26.78;13.90
28510;BME280;15723;55.684;37.928;2023-04-21T06:41:00;100044.41;;;28.55;12.55
28510;BME280;15723;55.684;37.928;2023-04-21T06:43:27;100042.78;;;28.20;12.74
28510;BME280;15723;55.684;37.928;2023-04-21T06:45:53;100036.97;;;30.00;12.05
28510;BME280;15723;55.684;37.928;2023-04-21T06:48:19;100038.38;;;28.45;13.00
28510;BME280;15723;55.684;37.928;2023-04-21T06:50:46;100043.56;;;28.00;13.15
28510;BME280;15723;55.684;37.928;2023-04-21T06:53:12;100030.75;;;30.49;11.24
28510;BME280;15723;55.684;37.928;2023-04-21T06:55:38;100038.63;;;27.96;12.96
28510;BME280;15723;55.684;37.928;2023-04-21T06:58:05;100030.31;;;28.22;12.95
28510;BME280;15723;55.684;37.928;2023-04-21T07:00:31;100049.47;;;26.72;13.67
28510;BME280;15723;55.684;37.928;2023-04-21T07:02:57;100040.78;;;28.81;11.99
28510;BME280;15723;55.684;37.928;2023-04-21T07:05:23;100039.75;;;29.15;12.17
28510;BME280;15723;55.684;37.928;2023-04-21T07:07:49;100027.19;;;28.25;12.85
28510;BME280;15723;55.684;37.928;2023-04-21T07:10:15;100035.94;;;26.27;13.86
28510;BME280;15723;55.684;37.928;2023-04-21T07:12:45;100030.50;;;27.04;13.43
28510;BME280;15723;55.684;37.928;2023-04-21T07:15:11;100033.31;;;25.01;14.52
28510;BME280;15723;55.684;37.928;2023-04-21T07:17:37;100018.16;;;26.64;13.43
28510;BME280;15723;55.684;37.928;2023-04-21T07:20:04;100030.81;;;26.45;13.64
28510;BME280;15723;55.684;37.928;2023-04-21T07:22:31;100017.00;;;28.18;12.91
28510;BME280;15723;55.684;37.928;2023-04-21T07:24:57;100018.34;;;27.74;12.71
28510;BME280;15723;55.684;37.928;2023-04-21T07:27:23;100013.13;;;27.30;13.21
28510;BME280;15723;55.684;37.928;2023-04-21T07:29:49;100017.66;;;26.17;14.20
28510;BME280;15723;55.684;37.928;2023-04-21T07:32:15;100007.28;;;27.94;13.13
28510;BME280;15723;55.684;37.928;2023-04-21T07:34:42;100004.56;;;30.30;11.35
28510;BME280;15723;55.684;37.928;2023-04-21T07:37:11;100009.31;;;27.72;12.96
28510;BME280;15723;55.684;37.928;2023-04-21T07:39:37;99996.16;;;28.07;12.67
28510;BME280;15723;55.684;37.928;2023-04-21T07:42:03;100002.94;;;27.50;13.06
28510;BME280;15723;55.684;37.928;2023-04-21T07:44:33;100006.78;;;27.77;13.18
28510;BME280;15723;55.684;37.928;2023-04-21T07:46:59;99988.31;;;29.49;11.99
28510;BME280;15723;55.684;37.928;2023-04-21T07:49:26;99977.47;;;29.79;11.93
28510;BME280;15723;55.684;37.928;2023-04-21T07:51:52;99992.03;;;29.17;11.91
28510;BME280;15723;55.684;37.928;2023-04-21T07:54:18;99992.19;;;28.49;12.99
28510;BME280;15723;55.684;37.928;2023-04-21T07:56:44;99996.19;;;27.25;13.46
28510;BME280;15723;55.684;37.928;2023-04-21T07:59:11;99974.69;;;27.94;12.77
28510;BME280;15723;55.684;37.928;2023-04-21T08:01:37;99968.59;;;29.89;11.83
28510;BME280;15723;55.684;37.928;2023-04-21T08:04:04;99970.97;;;28.75;12.14
28510;BME280;15723;55.684;37.928;2023-04-21T08:06:30;99970.53;;;28.64;12.33
28510;BME280;15723;55.684;37.928;2023-04-21T08:08:58;99964.94;;;29.88;11.61
28510;BME280;15723;55.684;37.928;2023-04-21T08:11:24;99968.38;;;29.19;12.14
28510;BME280;15723;55.684;37.928;2023-04-21T08:13:51;99968.91;;;26.92;13.76
28510;BME280;15723;55.684;37.928;2023-04-21T08:16:17;99958.91;;;27.67;13.38
28510;BME280;15723;55.684;37.928;2023-04-21T08:18:43;99965.78;;;26.10;14.83
28510;BME280;15723;55.684;37.928;2023-04-21T08:21:09;99973.75;;;23.97;16.18
28510;BME280;15723;55.684;37.928;2023-04-21T08:23:36;99971.75;;;23.04;17.09
28510;BME280;15723;55.684;37.928;2023-04-21T08:26:02;99978.22;;;22.40;17.75
28510;BME280;15723;55.684;37.928;2023-04-21T08:28:28;99970.16;;;21.88;18.09
28510;BME280;15723;55.684;37.928;2023-04-21T08:30:54;99980.28;;;20.69;19.06
28510;BME280;15723;55.684;37.928;2023-04-21T08:33:21;99973.25;;;20.31;19.49
28510;BME280;15723;55.684;37.928;2023-04-21T08:35:47;99974.66;;;20.79;19.12
28510;BME280;15723;55.684;37.928;2023-04-21T08:38:13;99963.75;;;20.08;19.90
28510;BME280;15723;55.684;37.928;2023-04-21T08:40:39;99960.84;;;19.91;20.05
28510;BME280;15723;55.684;37.928;2023-04-21T08:43:07;99960.34;;;19.96;20.57
28510;BME280;15723;55.684;37.928;2023-04-21T08:45:34;99959.63;;;19.58;20.60
28510;BME280;15723;55.684;37.928;2023-04-21T08:48:01;99972.09;;;19.25;21.02
28510;BME280;15723;55.684;37.928;2023-04-21T08:50:30;99951.84;;;20.25;20.08
28510;BME280;15723;55.684;37.928;2023-04-21T08:52:57;99964.78;;;19.71;20.78
28510;BME280;15723;55.684;37.928;2023-04-21T08:55:29;99953.09;;;20.30;20.38
28510;BME280;15723;55.684;37.928;2023-04-21T08:57:56;99947.81;;;19.66;20.50
28510;BME280;15723;55.684;37.928;2023-04-21T09:00:22;99959.94;;;18.25;21.72
28510;BME280;15723;55.684;37.928;2023-04-21T09:02:57;99936.88;;;19.56;21.16
28510;BME280;15723;55.684;37.928;2023-04-21T09:05:28;99935.13;;;19.38;20.74
28510;BME280;15723;55.684;37.928;2023-04-21T09:08:11;99928.72;;;19.64;20.41
28510;BME280;15723;55.684;37.928;2023-04-21T09:13:10;99922.81;;;19.95;20.37
28510;BME280;15723;55.684;37.928;2023-04-21T09:15:43;99926.03;;;19.27;21.43
28510;BME280;15723;55.684;37.928;2023-04-21T09:18:15;99923.56;;;19.52;20.52
28510;BME280;15723;55.684;37.928;2023-04-21T09:20:43;99922.06;;;19.12;21.29
28510;BME280;15723;55.684;37.928;2023-04-21T09:23:11;99923.84;;;19.58;20.74
28510;BME280;15723;55.684;37.928;2023-04-21T09:25:45;99929.59;;;19.38;20.32
28510;BME280;15723;55.684;37.928;2023-04-21T09:28:13;99923.63;;;19.42;20.21
28510;BME280;15723;55.684;37.928;2023-04-21T09:30:41;99912.09;;;19.56;20.48
28510;BME280;15723;55.684;37.928;2023-04-21T09:33:15;99907.63;;;19.55;20.58
28510;BME280;15723;55.684;37.928;2023-04-21T09:35:42;99902.22;;;20.25;19.96
28510;BME280;15723;55.684;37.928;2023-04-21T09:38:10;99885.59;;;20.35;19.77
28510;BME280;15723;55.684;37.928;2023-04-21T09:40:37;99881.81;;;20.10;20.01
28510;BME280;15723;55.684;37.928;2023-04-21T09:43:03;99890.28;;;19.00;20.99
28510;BME280;15723;55.684;37.928;2023-04-21T09:45:30;99893.88;;;19.28;21.15
28510;BME280;15723;55.684;37.928;2023-04-21T09:47:58;99913.94;;;18.36;21.65
28510;BME280;15723;55.684;37.928;2023-04-21T09:50:28;99908.09;;;18.68;21.15
28510;BME280;15723;55.684;37.928;2023-04-21T09:52:55;99897.03;;;18.78;20.58
28510;BME280;15723;55.684;37.928;2023-04-21T09:55:25;99886.00;;;18.88;20.92
28510;BME280;15723;55.684;37.928;2023-04-21T09:57:59;99882.78;;;18.92;20.42
28510;BME280;15723;55.684;37.928;2023-04-21T10:00:28;99893.69;;;18.37;21.31
28510;BME280;15723;55.684;37.928;2023-04-21T10:03:03;99881.28;;;19.25;20.80
28510;BME280;15723;55.684;37.928;2023-04-21T10:05:30;99878.75;;;19.59;20.46
28510;BME280;15723;55.684;37.928;2023-04-21T10:07:57;99871.53;;;19.13;20.93
28510;BME280;15723;55.684;37.928;2023-04-21T10:10:26;99871.53;;;19.76;20.09
28510;BME280;15723;55.684;37.928;2023-04-21T10:12:53;99868.69;;;19.68;20.45
28510;BME280;15723;55.684;37.928;2023-04-21T10:15:39;99859.09;;;18.82;21.21
28510;BME280;15723;55.684;37.928;2023-04-21T10:18:16;99853.50;;;19.64;20.62
28510;BME280;15723;55.684;37.928;2023-04-21T10:26:13;99860.06;;;18.53;21.06
28510;BME280;15723;55.684;37.928;2023-04-21T10:36:48;99831.69;;;18.90;21.21
28510;BME280;15723;55.684;37.928;2023-04-21T10:39:36;99834.59;;;18.61;21.11
28510;BME280;15723;55.684;37.928;2023-04-21T10:45:06;99834.00;;;18.57;21.01
28510;BME280;15723;55.684;37.928;2023-04-21T10:52:45;99832.72;;;18.89;20.12
28510;BME280;15723;55.684;37.928;2023-04-21T10:55:11;99827.28;;;19.42;20.18
28510;BME280;15723;55.684;37.928;2023-04-21T10:57:42;99829.03;;;19.61;19.83
28510;BME280;15723;55.684;37.928;2023-04-21T11:00:10;99826.34;;;19.33;20.02
28510;BME280;15723;55.684;37.928;2023-04-21T11:02:36;99817.31;;;19.59;20.37
28510;BME280;15723;55.684;37.928;2023-04-21T11:05:04;99817.47;;;19.57;20.30
28510;BME280;15723;55.684;37.928;2023-04-21T11:07:31;99811.72;;;19.15;20.74
28510;BME280;15723;55.684;37.928;2023-04-21T11:10:02;99809.44;;;19.82;20.13
28510;BME280;15723;55.684;37.928;2023-04-21T11:12:36;99808.50;;;19.55;20.52
28510;BME280;15723;55.684;37.928;2023-04-21T11:15:10;99804.72;;;19.21;21.27
28510;BME280;15723;55.684;37.928;2023-04-21T11:17:38;99799.47;;;18.82;21.63
28510;BME280;15723;55.684;37.928;2023-04-21T11:20:05;99802.59;;;18.97;21.30
28510;BME280;15723;55.684;37.928;2023-04-21T11:22:32;99803.97;;;18.46;21.59
28510;BME280;15723;55.684;37.928;2023-04-21T11:24:59;99799.28;;;18.29;21.08
28510;BME280;15723;55.684;37.928;2023-04-21T11:27:27;99793.16;;;18.99;20.42
28510;BME280;15723;55.684;37.928;2023-04-21T11:29:54;99788.56;;;18.90;20.85
28510;BME280;15723;55.684;37.928;2023-04-21T11:32:20;99789.50;;;18.07;22.00
28510;BME280;15723;55.684;37.928;2023-04-21T11:34:46;99793.84;;;18.09;21.70
28510;BME280;15723;55.684;37.928;2023-04-21T11:37:22;99786.19;;;18.03;21.91
28510;BME280;15723;55.684;37.928;2023-04-21T11:39:56;99771.75;;;18.38;21.51
28510;BME280;15723;55.684;37.928;2023-04-21T11:42:23;99773.84;;;18.64;21.47
28510;BME280;15723;55.684;37.928;2023-04-21T11:44:53;99767.31;;;18.55;21.45
28510;BME280;15723;55.684;37.928;2023-04-21T11:47:24;99763.69;;;18.55;21.40
28510;BME280;15723;55.684;37.928;2023-04-21T11:49:56;99764.19;;;18.23;21.58
28510;BME280;15723;55.684;37.928;2023-04-21T11:52:25;99760.72;;;18.48;21.63
28510;BME280;15723;55.684;37.928;2023-04-21T11:55:01;99751.69;;;18.83;21.36
28510;BME280;15723;55.684;37.928;2023-04-21T11:57:30;99756.53;;;19.17;20.87
28510;BME280;15723;55.684;37.928;2023-04-21T12:00:02;99748.81;;;19.38;20.68
28510;BME280;15723;55.684;37.928;2023-04-21T12:02:33;99746.47;;;19.08;21.18
28510;BME280;15723;55.684;37.928;2023-04-21T12:05:03;99744.88;;;18.87;21.56
28510;BME280;15723;55.684;37.928;2023-04-21T12:07:39;99746.16;;;19.11;21.81
28510;BME280;15723;55.684;37.928;2023-04-21T12:10:07;99743.75;;;18.62;22.03
28510;BME280;15723;55.684;37.928;2023-04-21T12:12:37;99751.84;;;18.54;21.73
28510;BME280;15723;55.684;37.928;2023-04-21T12:15:11;99743.16;;;18.59;21.45
28510;BME280;15723;55.684;37.928;2023-04-21T12:17:47;99749.63;;;18.40;21.59
28510;BME280;15723;55.684;37.928;2023-04-21T12:20:18;99740.84;;;18.64;21.74
28510;BME280;15723;55.684;37.928;2023-04-21T12:22:46;99742.69;;;18.36;21.83
28510;BME280;15723;55.684;37.928;2023-04-21T12:25:13;99744.94;;;18.23;21.93
28510;BME280;15723;55.684;37.928;2023-04-21T12:27:49;99734.41;;;18.46;22.06
28510;BME280;15723;55.684;37.928;2023-04-21T12:30:17;99729.66;;;18.38;21.46
28510;BME280;15723;55.684;37.928;2023-04-21T12:32:44;99733.53;;;18.45;21.75
28510;BME280;15723;55.684;37.928;2023-04-21T12:35:12;99735.00;;;18.12;22.03
28510;BME280;15723;55.684;37.928;2023-04-21T12:37:38;99736.91;;;18.39;21.83
28510;BME280;15723;55.684;37.928;2023-04-21T12:40:05;99730.13;;;18.61;21.47
28510;BME280;15723;55.684;37.928;2023-04-21T12:42:32;99726.88;;;18.93;21.28
28510;BME280;15723;55.684;37.928;2023-04-21T12:44:59;99719.50;;;18.93;21.18
28510;BME280;15723;55.684;37.928;2023-04-21T12:47:26;99716.91;;;18.92;21.79
28510;BME280;15723;55.684;37.928;2023-04-21T12:49:52;99717.13;;;18.53;21.60
28510;BME280;15723;55.684;37.928;2023-04-21T12:52:18;99716.72;;;18.30;22.08
28510;BME280;15723;55.684;37.928;2023-04-21T12:54:45;99710.28;;;17.75;22.75
28510;BME280;15723;55.684;37.928;2023-04-21T12:57:11;99711.13;;;17.85;22.47
28510;BME280;15723;55.684;37.928;2023-04-21T12:59:38;99698.97;;;17.88;22.66
28510;BME280;15723;55.684;37.928;2023-04-21T13:02:05;99702.44;;;17.80;22.56
28510;BME280;15723;55.684;37.928;2023-04-21T13:04:32;99687.13;;;17.77;22.42
28510;BME280;15723;55.684;37.928;2023-04-21T13:06:58;99692.72;;;17.95;22.45
28510;BME280;15723;55.684;37.928;2023-04-21T13:09:24;99684.25;;;17.79;22.78
28510;BME280;15723;55.684;37.928;2023-04-21T13:11:51;99680.00;;;17.38;23.35